sensor_id;sensor_type;location;lat;lon;timestamp;temperature;humidity
37342;DHT22;58643;49.052;8.518;2023-08-17T10:46:36;28.00;99.90
37342;DHT22;58643;49.052;8.518;2023-08-17T10:49:06;28.60;99.90
37342;DHT22;58643;49.052;8.518;2023-08-17T10:51:33;29.20;99.90
37342;DHT22;58643;49.052;8.518;2023-08-17T10:54:01;30.00;99.90
37342;DHT22;58643;49.052;8.518;2023-08-17T10:56:29;30.10;99.90
37342;DHT22;58643;49.052;8.518;2023-08-17T10:58:54;31.00;99.90
37342;DHT22;58643;49.052;8.518;2023-08-17T11:01:39;30.00;99.90
37342;DHT22;58643;49.052;8.518;2023-08-17T11:04:10;30.90;99.90
37342;DHT22;58643;49.052;8.518;2023-08-17T11:06:36;32.80;99.90
37342;DHT22;58643;49.052;8.518;2023-08-17T11:09:07;34.80;98.20
37342;DHT22;58643;49.052;8.518;2023-08-17T11:11:33;34.30;97.10
37342;DHT22;58643;49.052;8.518;2023-08-17T11:13:59;35.00;96.00
37342;DHT22;58643;49.052;8.518;2023-08-17T11:16:24;34.40;95.70
37342;DHT22;58643;49.052;8.518;2023-08-17T11:18:51;34.40;95.80
37342;DHT22;58643;49.052;8.518;2023-08-17T11:21:17;35.70;94.80
37342;DHT22;58643;49.052;8.518;2023-08-17T11:23:43;36.20;94.70
37342;DHT22;58643;49.052;8.518;2023-08-17T11:26:09;35.40;93.50
37342;DHT22;58643;49.052;8.518;2023-08-17T11:28:35;34.80;93.80
37342;DHT22;58643;49.052;8.518;2023-08-17T11:31:08;34.30;94.60
37342;DHT22;58643;49.052;8.518;2023-08-17T11:33:35;31.20;97.20
37342;DHT22;58643;49.052;8.518;2023-08-17T11:36:03;29.50;99.90
37342;DHT22;58643;49.052;8.518;2023-08-17T11:38:39;28.80;99.90
37342;DHT22;58643;49.052;8.518;2023-08-17T11:41:06;28.70;99.90
37342;DHT22;58643;49.052;8.518;2023-08-17T11:43:33;28.30;99.90
37342;DHT22;58643;49.052;8.518;2023-08-17T11:46:00;27.60;99.90
37342;DHT22;58643;49.052;8.518;2023-08-17T11:48:27;27.10;99.90
37342;DHT22;58643;49.052;8.518;2023-08-17T11:50:53;26.80;99.90
37342;DHT22;58643;49.052;8.518;2023-08-17T11:53:19;27.00;99.90
37342;DHT22;58643;49.052;8.518;2023-08-17T11:55:45;26.30;99.90
37342;DHT22;58643;49.052;8.518;2023-08-17T11:58:10;26.10;99.90
37342;DHT22;58643;49.052;8.518;2023-08-17T12:00:39;26.10;99.90
37342;DHT22;58643;49.052;8.518;2023-08-17T12:03:06;26.80;99.90
37342;DHT22;58643;49.052;8.518;2023-08-17T12:05:32;25.80;99.90
37342;DHT22;58643;49.052;8.518;2023-08-17T12:08:01;25.50;99.90
37342;DHT22;58643;49.052;8.518;2023-08-17T12:10:28;25.40;99.90
37342;DHT22;58643;49.052;8.518;2023-08-17T12:12:57;25.30;99.90
37342;DHT22;58643;49.052;8.518;2023-08-17T12:15:24;25.50;99.90
37342;DHT22;58643;49.052;8.518;2023-08-17T12:17:50;25.30;99.90
37342;DHT22;58643;49.052;8.518;2023-08-17T12:20:21;25.60;99.90
37342;DHT22;58643;49.052;8.518;2023-08-17T12:22:47;25.70;99.90
37342;DHT22;58643;49.052;8.518;2023-08-17T12:25:13;25.90;99.90
37342;DHT22;58643;49.052;8.518;2023-08-17T12:27:41;25.90;99.90
37342;DHT22;58643;49.052;8.518;2023-08-17T12:30:28;26.50;99.90
37342;DHT22;58643;49.052;8.518;2023-08-17T12:32:54;27.20;99.90
37342;DHT22;58643;49.052;8.518;2023-08-17T12:35:20;28.40;99.90
37342;DHT22;58643;49.052;8.518;2023-08-17T12:37:47;29.40;99.90
37342;DHT22;58643;49.052;8.518;2023-08-17T12:40:13;28.90;99.90
37342;DHT22;58643;49.052;8.518;2023-08-17T12:42:38;29.40;99.90
37342;DHT22;58643;49.052;8.518;2023-08-17T12:45:04;30.00;99.90
37342;DHT22;58643;49.052;8.518;2023-08-17T12:47:30;29.80;99.90
37342;DHT22;58643;49.052;8.518;2023-08-17T12:49:55;29.90;99.90
37342;DHT22;58643;49.052;8.518;2023-08-17T12:52:21;30.40;99.90
37342;DHT22;58643;49.052;8.518;2023-08-17T12:54:47;30.00;99.90
37342;DHT22;58643;49.052;8.518;2023-08-17T12:57:12;30.60;99.90
37342;DHT22;58643;49.052;8.518;2023-08-17T12:59:38;31.20;99.90
37342;DHT22;58643;49.052;8.518;2023-08-17T13:02:03;31.30;99.90
37342;DHT22;58643;49.052;8.518;2023-08-17T13:04:29;31.40;99.90
37342;DHT22;58643;49.052;8.518;2023-08-17T13:06:55;32.10;99.90
37342;DHT22;58643;49.052;8.518;2023-08-17T13:09:20;32.30;99.90
37342;DHT22;58643;49.052;8.518;2023-08-17T13:11:46;32.40;99.90
37342;DHT22;58643;49.052;8.518;2023-08-17T13:14:13;32.00;99.90
37342;DHT22;58643;49.052;8.518;2023-08-17T13:16:39;32.10;99.90
37342;DHT22;58643;49.052;8.518;2023-08-17T13:19:05;31.40;99.90
37342;DHT22;58643;49.052;8.518;2023-08-17T13:21:30;32.10;99.90
37342;DHT22;58643;49.052;8.518;2023-08-17T13:23:56;31.90;99.90
37342;DHT22;58643;49.052;8.518;2023-08-17T13:26:25;32.10;99.90
37342;DHT22;58643;49.052;8.518;2023-08-17T13:28:50;31.90;99.90
37342;DHT22;58643;49.052;8.518;2023-08-17T13:31:16;32.00;99.90
37342;DHT22;58643;49.052;8.518;2023-08-17T13:33:41;32.10;99.90
37342;DHT22;58643;49.052;8.518;2023-08-17T13:36:07;31.90;99.90
37342;DHT22;58643;49.052;8.518;2023-08-17T13:38:33;32.10;99.90
37342;DHT22;58643;49.052;8.518;2023-08-17T13:40:58;32.40;99.90
37342;DHT22;58643;49.052;8.518;2023-08-17T13:43:24;32.70;99.90
37342;DHT22;58643;49.052;8.518;2023-08-17T13:45:49;32.70;99.90
37342;DHT22;58643;49.052;8.518;2023-08-17T13:48:15;32.80;99.90
37342;DHT22;58643;49.052;8.518;2023-08-17T13:50:41;32.70;99.90
37342;DHT22;58643;49.052;8.518;2023-08-17T13:53:06;33.40;99.60
37342;DHT22;58643;49.052;8.518;2023-08-17T13:55:32;33.20;99.90
37342;DHT22;58643;49.052;8.518;2023-08-17T13:57:58;33.40;99.30
37342;DHT22;58643;49.052;8.518;2023-08-17T14:00:24;33.90;98.90
37342;DHT22;58643;49.052;8.518;2023-08-17T14:02:50;34.00;98.60
37342;DHT22;58643;49.052;8.518;2023-08-17T14:05:16;33.80;98.40
37342;DHT22;58643;49.052;8.518;2023-08-17T14:07:41;33.80;98.20
37342;DHT22;58643;49.052;8.518;2023-08-17T14:10:07;33.50;98.20
37342;DHT22;58643;49.052;8.518;2023-08-17T14:12:33;33.40;98.70
37342;DHT22;58643;49.052;8.518;2023-08-17T14:14:59;33.60;98.80
37342;DHT22;58643;49.052;8.518;2023-08-17T14:17:25;34.40;98.30
37342;DHT22;58643;49.052;8.518;2023-08-17T14:19:50;34.60;97.30
37342;DHT22;58643;49.052;8.518;2023-08-17T14:22:16;34.70;96.80
37342;DHT22;58643;49.052;8.518;2023-08-17T14:24:41;34.60;96.90
37342;DHT22;58643;49.052;8.518;2023-08-17T14:27:07;34.90;96.90
37342;DHT22;58643;49.052;8.518;2023-08-17T14:29:33;35.60;96.10
37342;DHT22;58643;49.052;8.518;2023-08-17T14:31:58;35.70;95.40
37342;DHT22;58643;49.052;8.518;2023-08-17T14:34:24;35.70;95.10
37342;DHT22;58643;49.052;8.518;2023-08-17T14:36:49;35.40;95.90
37342;DHT22;58643;49.052;8.518;2023-08-17T14:39:15;35.60;94.80
37342;DHT22;58643;49.052;8.518;2023-08-17T14:41:40;35.70;95.30
37342;DHT22;58643;49.052;8.518;2023-08-17T14:44:06;35.80;94.20
37342;DHT22;58643;49.052;8.518;2023-08-17T14:46:32;36.10;94.20
37342;DHT22;58643;49.052;8.518;2023-08-17T14:48:57;37.00;93.20
37342;DHT22;58643;49.052;8.518;2023-08-17T14:51:24;37.10;91.80
37342;DHT22;58643;49.052;8.518;2023-08-17T14:53:50;36.90;91.90
37342;DHT22;58643;49.052;8.518;2023-08-17T14:56:15;37.00;91.80
37342;DHT22;58643;49.052;8.518;2023-08-17T14:58:41;37.80;91.20
37342;DHT22;58643;49.052;8.518;2023-08-17T15:01:06;38.40;90.30
37342;DHT22;58643;49.052;8.518;2023-08-17T15:03:32;38.90;88.80
37342;DHT22;58643;49.052;8.518;2023-08-17T15:05:58;37.80;89.30
37342;DHT22;58643;49.052;8.518;2023-08-17T15:08:24;38.60;88.40
37342;DHT22;58643;49.052;8.518;2023-08-17T15:10:49;37.40;89.90
37342;DHT22;58643;49.052;8.518;2023-08-17T15:13:16;37.50;89.40
37342;DHT22;58643;49.052;8.518;2023-08-17T15:15:42;37.00;88.90
37342;DHT22;58643;49.052;8.518;2023-08-17T15:18:08;37.80;87.60
37342;DHT22;58643;49.052;8.518;2023-08-17T15:20:34;37.40;88.40
37342;DHT22;58643;49.052;8.518;2023-08-17T15:23:00;37.80;88.80
37342;DHT22;58643;49.052;8.518;2023-08-17T15:25:25;36.20;90.40
37342;DHT22;58643;49.052;8.518;2023-08-17T15:27:51;36.70;88.70
37342;DHT22;58643;49.052;8.518;2023-08-17T15:30:16;36.50;87.80
37342;DHT22;58643;49.052;8.518;2023-08-17T15:32:42;36.10;90.10
37342;DHT22;58643;49.052;8.518;2023-08-17T15:35:10;35.60;90.30
37342;DHT22;58643;49.052;8.518;2023-08-17T15:37:39;34.80;91.10
37342;DHT22;58643;49.052;8.518;2023-08-17T15:40:06;33.80;92.20
37342;DHT22;58643;49.052;8.518;2023-08-17T15:42:31;33.80;92.40
37342;DHT22;58643;49.052;8.518;2023-08-17T15:44:57;32.80;92.90
37342;DHT22;58643;49.052;8.518;2023-08-17T15:47:23;31.50;94.80
37342;DHT22;58643;49.052;8.518;2023-08-17T15:49:48;30.80;96.10
37342;DHT22;58643;49.052;8.518;2023-08-17T15:52:14;30.20;97.50
37342;DHT22;58643;49.052;8.518;2023-08-17T15:54:40;29.80;98.10
37342;DHT22;58643;49.052;8.518;2023-08-17T15:57:06;29.30;99.10
37342;DHT22;58643;49.052;8.518;2023-08-17T15:59:32;29.50;99.50
37342;DHT22;58643;49.052;8.518;2023-08-17T16:01:58;29.00;99.90
37342;DHT22;58643;49.052;8.518;2023-08-17T16:04:23;28.80;99.90
37342;DHT22;58643;49.052;8.518;2023-08-17T16:06:49;29.10;99.90
37342;DHT22;58643;49.052;8.518;2023-08-17T16:09:14;29.30;99.90
37342;DHT22;58643;49.052;8.518;2023-08-17T16:11:40;30.00;99.90
37342;DHT22;58643;49.052;8.518;2023-08-17T16:14:05;30.30;99.90
37342;DHT22;58643;49.052;8.518;2023-08-17T16:16:31;30.60;99.90
37342;DHT22;58643;49.052;8.518;2023-08-17T16:18:56;30.50;99.90
37342;DHT22;58643;49.052;8.518;2023-08-17T16:21:22;30.60;99.90
37342;DHT22;58643;49.052;8.518;2023-08-17T16:23:48;30.90;99.90
37342;DHT22;58643;49.052;8.518;2023-08-17T16:26:13;31.00;99.90
37342;DHT22;58643;49.052;8.518;2023-08-17T16:28:39;31.10;99.90
37342;DHT22;58643;49.052;8.518;2023-08-17T16:31:04;31.00;99.70
37342;DHT22;58643;49.052;8.518;2023-08-17T16:33:30;30.80;99.70
37342;DHT22;58643;49.052;8.518;2023-08-17T16:35:55;30.50;99.90
37342;DHT22;58643;49.052;8.518;2023-08-17T16:38:21;30.40;99.90
37342;DHT22;58643;49.052;8.518;2023-08-17T16:40:47;30.10;99.90
37342;DHT22;58643;49.052;8.518;2023-08-17T16:43:13;30.10;99.90
